M I D A S
Marine Information and Data Acquisition System
Tripno 1912 of the Zeeleeuw from 2010-07-01 05:14:20 to 2010-07-01 14:13:49
Back to CruiseResearch ActivitiesStationsMapUnderway DataData graphs

EquipmentUnitsComment
TimeDGPSUTC
LatitudeDGPSDM.mWGS84
LongitudeDGPSDM.mWGS84
TemperatureSBE03/SBE38deg celciusITS90
ConductivitySBE21S/mITS90
SalinitySBE21 Practical Salinity Units
ChlorophylAChelsea fluorimeterg/lCalibrated in Aceton
Missing or incorrect values are displayed as -999
Sea surface data collected by the RV Zeeleeuw from 2010-07-01 05:06:50 to 2010-07-01 14:21:27
Time Latitude Longitude Temperature Conductivity Salinity ChlorophylA
2010-07-01 05:07:59 51°13.672 2°55.916 22.1485 0.085556 0.450395 -1.000568
2010-07-01 05:08:59 51°13.688 2°55.84 22.1541 0.085556 0.450422 -1.035392
2010-07-01 05:09:59 51°13.699 2°55.75 22.1559 0.085243 0.448741 -1.035392
2010-07-01 05:10:57 51°13.701 2°55.714 22.1747 0.084099 0.442529 -1.000568
2010-07-01 05:11:55 51°13.727 2°55.726 22.203 0.081914 0.43067 -1.000568
2010-07-01 05:12:55 51°13.791 2°55.676 22.1433 0.084203 0.443123 -1.000568
2010-07-01 05:13:55 51°13.884 2°55.596 22.1519 0.083787 0.440909 -1.035392
2010-07-01 05:14:55 51°13.989 2°55.518 22.1624 0.084515 0.444906 -1.035392
2010-07-01 05:15:55 51°14.102 2°55.442 22.1753 0.083578 0.439822 -1.000568
2010-07-01 05:16:55 51°14.214 2°55.343 22.1799 0.083162 0.437567 -1.000568
2010-07-01 05:17:55 51°14.327 2°55.224 22.1639 0.082226 0.432487 -1.000568
2010-07-01 05:18:55 51°14.455 2°55.097 22.1713 0.080977 0.425719 -1.000568
2010-07-01 05:19:55 51°14.597 2°54.967 22.157 0.084307 0.443873 -1.035392
2010-07-01 05:20:55 51°14.754 2°54.83 22.1437 0.083058 0.437087 -1.000568
2010-07-01 05:21:55 51°14.911 2°54.672 22.16 0.081185 0.426909 -1.000568
2010-07-01 05:22:55 51°15.067 2°54.493 22.1452 0.080353 0.422407 -1.035392
2010-07-01 05:23:55 51°15.225 2°54.305 22.1398 0.084411 0.444542 -1.035392
2010-07-01 05:24:55 51°15.381 2°54.11 22.1509 0.077231 0.405511 -1.035392
2010-07-01 05:25:55 51°15.541 2°53.897 19.3973 3.980673 27.453027 -0.338911
2010-07-01 05:26:55 51°15.715 2°53.671 18.9972 4.190336 30.453607 2.551485
2010-07-01 05:27:55 51°15.893 2°53.45 18.8857 4.14402 30.340721 2.307717
2010-07-01 05:28:55 51°16.087 2°53.261 18.7964 4.145921 30.452287 1.715708
2010-07-01 05:29:55 51°16.301 2°53.119 18.685 4.139487 30.46828 1.611236
2010-07-01 05:30:55 51°16.513 2°52.977 18.6285 4.15215 30.658431 1.297819
2010-07-01 05:31:55 51°16.728 2°52.839 18.5891 4.152361 30.689924 1.332643
2010-07-01 05:32:55 51°16.953 2°52.735 18.5162 4.150357 30.717067 1.262995
2010-07-01 05:33:55 51°17.181 2°52.641 18.2726 4.15078 30.779344 1.228171
2010-07-01 05:34:55 51°17.412 2°52.581 17.9885 4.14994 30.957806 1.297819
2010-07-01 05:35:55 51°17.641 2°52.529 17.8099 4.138653 31.070461 1.228171
2010-07-01 05:36:55 51°17.871 2°52.512 17.7251 4.129687 31.112532 1.193347
2010-07-01 05:37:55 51°18.099 2°52.585 17.7021 4.117449 31.068199 1.193347
2010-07-01 05:38:55 51°18.328 2°52.661 17.6674 4.113124 31.058883 1.193347
2010-07-01 05:39:55 51°18.557 2°52.732 17.635 4.100674 30.977813 1.193347
2010-07-01 05:40:55 51°18.787 2°52.8 17.619 4.100886 31.00114 1.262995
2010-07-01 05:41:55 51°19.016 2°52.868 17.6312 4.106478 31.05658 1.332643
2010-07-01 05:42:55 51°19.246 2°52.932 17.6577 4.107216 31.054496 1.297819
2010-07-01 05:43:55 51°19.476 2°52.998 17.6761 4.084637 30.8483 1.332643
2010-07-01 05:44:55 51°19.707 2°53.062 17.7014 4.11017 31.050048 1.297819
2010-07-01 05:45:55 51°19.937 2°53.125 17.7364 4.111857 31.042696 1.332643
2010-07-01 05:46:55 51°20.166 2°53.19 17.8675 4.114811 31.036072 1.402292
2010-07-01 05:47:55 51°20.396 2°53.251 17.9929 4.118186 30.964289 1.506764
2010-07-01 05:48:55 51°20.626 2°53.313 17.9909 4.122615 30.91276 1.64606
2010-07-01 05:49:55 51°20.856 2°53.376 17.7837 4.116391 30.89891 1.541588
2010-07-01 05:50:55 51°21.085 2°53.436 17.7165 4.079466 30.721576 1.437116
2010-07-01 05:51:55 51°21.316 2°53.498 17.676 4.080839 30.778481 1.367467
2010-07-01 05:52:55 51°21.547 2°53.559 17.5847 4.077779 30.786191 1.297819
2010-07-01 05:53:55 51°21.777 2°53.602 17.5302 4.075143 30.838759 1.228171
2010-07-01 05:54:55 51°22.01 2°53.602 17.5476 4.072928 30.848747 1.193347
2010-07-01 05:55:55 51°22.243 2°53.601 17.593 4.071451 30.815328 1.228171
2010-07-01 05:56:55 51°22.476 2°53.597 17.5783 4.075143 30.818931 1.297819
2010-07-01 05:57:55 51°22.711 2°53.599 17.5455 4.070184 30.791988 1.297819
2010-07-01 05:58:55 51°22.951 2°53.605 17.5164 4.07124 30.827879 1.228171
2010-07-01 05:59:55 51°23.189 2°53.608 17.3521 4.075355 30.895769 1.193347
2010-07-01 06:00:55 51°23.425 2°53.606 17.2055 4.076729 31.033032 1.088875
2010-07-01 06:01:55 51°23.658 2°53.602 17.1648 4.073249 31.095307 1.088875
2010-07-01 06:02:55 51°23.893 2°53.6 17.162 4.067236 31.073327 1.088875
2010-07-01 06:03:55 51°24.128 2°53.594 17.1524 4.065442 31.061425 1.054051
2010-07-01 06:04:55 51°24.364 2°53.59 17.112 4.066497 31.082215 1.054051
2010-07-01 06:05:55 51°24.602 2°53.587 17.0363 4.066814 31.115315 1.019227
2010-07-01 06:06:55 51°24.837 2°53.579 16.994 4.066605 31.176779 0.914755
2010-07-01 06:07:55 51°25.073 2°53.569 17.0558 4.065655 31.189622 0.949579
2010-07-01 06:08:55 51°25.307 2°53.557 17.1136 4.060168 31.092434 1.019227
2010-07-01 06:09:55 51°25.541 2°53.548 17.1224 4.054998 31.010074 1.019227
2010-07-01 06:10:55 51°25.778 2°53.537 17.0775 4.059218 31.042671 1.019227
2010-07-01 06:11:55 51°26.013 2°53.527 17.031 4.061223 31.097491 0.914755
2010-07-01 06:12:55 51°26.252 2°53.52 17.0216 4.058797 31.104424 0.845107
2010-07-01 06:13:55 51°26.492 2°53.517 16.8418 4.058586 31.112224 0.70581
2010-07-01 06:14:55 51°26.729 2°53.517 16.6307 4.064392 31.317724 0.496866
2010-07-01 06:15:55 51°26.961 2°53.543 16.4878 4.062073 31.459373 0.287922
2010-07-01 06:16:55 51°27.193 2°53.568 16.464 4.058171 31.517235 0.218274
2010-07-01 06:17:55 51°27.429 2°53.595 16.4456 4.053952 31.501038 0.218274
2010-07-01 06:18:55 51°27.665 2°53.621 16.4297 4.053846 31.508848 0.287922
2010-07-01 06:19:55 51°27.903 2°53.648 16.3833 4.053741 31.527147 0.287922
2010-07-01 06:20:55 51°28.141 2°53.674 16.3211 4.060599 31.630457 0.253098
2010-07-01 06:24:12 51°28.902 2°53.925 16.3985 4.051737 31.534244 0.18345
2010-07-01 06:25:13 51°29.137 2°54.014 16.3653 4.051737 31.546498 0.148626
2010-07-01 06:26:12 51°29.362 2°54.097 16.3678 4.051421 31.558935 0.113802
2010-07-01 06:27:13 51°29.596 2°54.186 16.383 4.047517 31.519204 0.078977
2010-07-01 06:28:13 51°29.826 2°54.276 16.3878 4.045407 31.486317 0.148626
2010-07-01 06:29:13 51°30.059 2°54.375 16.3947 4.047623 31.507872 0.148626
2010-07-01 06:30:13 51°30.294 2°54.477 16.3972 4.052475 31.541235 0.078977
2010-07-01 06:31:12 51°30.524 2°54.584 16.3383 4.051737 31.536577 0.078977
2010-07-01 06:32:13 51°30.709 2°54.683 16.2135 4.061233 31.681703 -0.025495
2010-07-01 06:33:12 51°30.818 2°54.749 16.2018 4.059757 31.747757 -0.095143
2010-07-01 06:34:13 51°30.908 2°54.808 16.2021 4.059652 31.754514 -0.129967
2010-07-01 06:35:13 51°30.991 2°54.859 16.2078 4.059969 31.754912 -0.164791
2010-07-01 06:36:13 51°31.071 2°54.907 16.2156 4.058597 31.738228 -0.164791
2010-07-01 06:37:13 51°31.149 2°54.956 16.209 4.058597 31.736457 -0.164791
2010-07-01 06:38:12 51°31.224 2°55.004 16.2123 4.058175 31.73809 -0.129967
2010-07-01 06:39:13 51°31.303 2°55.052 16.2061 4.058175 31.735139 -0.129967
2010-07-01 06:40:12 51°31.38 2°55.097 16.1907 4.059019 31.748403 -0.095143
2010-07-01 06:41:13 51°31.47 2°55.133 16.1703 4.058914 31.756344 -0.095143
2010-07-01 06:42:12 51°31.569 2°55.137 16.1451 4.059336 31.780725 -0.060319
2010-07-01 06:43:13 51°31.676 2°55.134 16.139 4.059231 31.795792 -0.129967
2010-07-01 06:44:12 51°31.781 2°55.136 16.1292 4.058914 31.798953 -0.164791
2010-07-01 06:45:13 51°31.89 2°55.14 16.1273 4.05902 31.806988 -0.164791
2010-07-01 06:46:12 51°31.995 2°55.141 16.1239 4.058809 31.808109 -0.164791
2010-07-01 06:47:13 51°32.102 2°55.144 16.1207 4.058598 31.806859 -0.164791
2010-07-01 06:48:13 51°32.209 2°55.15 16.1196 4.058493 31.807716 -0.095143
2010-07-01 06:49:12 51°32.314 2°55.154 16.1061 4.05902 31.817665 -0.060319
2010-07-01 06:50:13 51°32.415 2°55.15 16.0897 4.05997 31.831902 -0.129967
2010-07-01 06:51:12 51°32.479 2°55.144 16.0901 4.060814 31.852353 -0.199615
2010-07-01 06:52:13 51°32.531 2°55.118 16.0965 4.05997 31.844971 -0.234439
2010-07-01 06:53:12 51°32.569 2°55.101 16.0914 4.061025 31.851821 -0.234439
2010-07-01 06:54:12 51°32.601 2°55.09 16.0925 4.06092 31.853871 -0.164791
2010-07-01 06:55:13 51°32.63 2°55.083 16.0962 4.061447 31.857295 -0.095143
2010-07-01 06:56:12 51°32.655 2°55.079 16.0961 4.061658 31.859736 -0.060319
2010-07-01 06:57:13 51°32.678 2°55.076 16.0941 4.061658 31.856168 -0.025495
2010-07-01 06:58:12 51°32.699 2°55.075 16.0925 4.061447 31.85789 0.078977
2010-07-01 06:59:13 51°32.754 2°55.07 16.0937 4.061869 31.859203 0.113802
2010-07-01 07:00:13 51°32.799 2°55.123 16.0864 4.06208 31.864616 -0.025495
2010-07-01 07:01:12 51°32.81 2°55.196 16.0833 4.06208 31.862832 -0.164791
2010-07-01 07:02:12 51°32.804 2°55.274 16.0862 4.062291 31.868841 -0.164791
2010-07-01 07:03:12 51°32.799 2°55.365 16.0863 4.062608 31.869231 -0.129967
2010-07-01 07:04:13 51°32.783 2°55.453 16.0945 4.06208 31.864616 -0.164791
2010-07-01 07:05:12 51°32.759 2°55.533 16.0956 4.061975 31.860126 -0.164791
2010-07-01 07:06:13 51°32.73 2°55.606 16.0956 4.061342 31.852806 -0.199615
2010-07-01 07:07:12 51°32.709 2°55.651 16.0984 4.060709 31.84727 -0.199615
2010-07-01 07:08:13 51°32.694 2°55.685 16.1003 4.05997 31.840811 -0.129967
2010-07-01 07:09:12 51°32.686 2°55.71 16.0984 4.05997 31.838435 -0.129967
2010-07-01 07:10:12 51°32.683 2°55.729 16.1053 4.05997 31.837841 -0.025495
2010-07-01 07:11:12 51°32.681 2°55.748 16.1015 4.060181 31.84028 0.009329
2010-07-01 07:12:12 51°32.664 2°55.762 16.0984 4.059864 31.83573 0.009329
2010-07-01 07:13:12 51°32.644 2°55.746 16.1139 4.059864 31.834543 -0.095143
2010-07-01 07:14:12 51°32.646 2°55.736 16.1174 4.05902 31.820039 -0.129967
2010-07-01 07:15:13 51°32.657 2°55.734 16.1229 4.058598 31.809824 -0.060319
2010-07-01 07:16:12 51°32.672 2°55.737 16.1229 4.058704 31.810153 0.113802
2010-07-01 07:17:13 51°32.687 2°55.745 16.1255 4.058493 31.808309 0.113802
2010-07-01 07:18:12 51°32.712 2°55.731 16.1279 4.05902 31.811733 0.148626
2010-07-01 07:19:13 51°32.733 2°55.71 16.1308 4.059548 31.813377 0.044153
2010-07-01 07:20:12 51°32.75 2°55.697 16.1263 4.058598 31.806859 0.044153
2010-07-01 07:21:12 51°32.765 2°55.688 16.1248 4.059126 31.811468 0.044153
2010-07-01 07:22:12 51°32.778 2°55.671 16.1248 4.060497 31.821674 0.044153
2010-07-01 07:23:12 51°32.761 2°55.619 16.1125 4.060392 31.825499 0.078977
2010-07-01 07:24:13 51°32.736 2°55.606 16.1165 4.060497 31.832951 0.009329
2010-07-01 07:25:12 51°32.721 2°55.608 16.1136 4.060603 31.831498 -0.025495
2010-07-01 07:26:13 51°32.712 2°55.616 16.126 4.060603 31.830311 -0.060319
2010-07-01 07:27:12 51°32.709 2°55.628 16.1332 4.060392 31.821938 0.009329
2010-07-01 07:28:13 51°32.71 2°55.642 16.1371 4.05997 31.812912 0.044153
2010-07-01 07:29:12 51°32.714 2°55.654 16.1417 4.060391 31.811856 0.078977
2010-07-01 07:30:12 51°32.721 2°55.666 16.1483 4.059864 31.802506 0.113802
2010-07-01 07:31:13 51°32.729 2°55.678 16.1483 4.060602 31.807771 0.18345
2010-07-01 07:32:12 51°32.737 2°55.687 16.1486 4.060075 31.801386 0.218274
2010-07-01 07:33:13 51°32.744 2°55.699 16.1513 4.059336 31.793751 0.253098
2010-07-01 07:34:12 51°32.731 2°55.704 16.1541 4.059442 31.792303 0.253098
2010-07-01 07:35:13 51°32.719 2°55.696 16.1552 4.059969 31.796317 0.078977
2010-07-01 07:36:12 51°32.716 2°55.691 16.1559 4.059653 31.791184 0.044153
2010-07-01 07:37:13 51°32.718 2°55.691 16.1609 4.059864 31.791842 0.078977
2010-07-01 07:38:12 51°32.721 2°55.695 16.1628 4.059758 31.787368 0.148626
2010-07-01 07:39:13 51°32.728 2°55.703 16.1597 4.059969 31.792171 0.218274
2010-07-01 07:40:12 51°32.737 2°55.711 16.1626 4.060391 31.792895 0.218274
2010-07-01 07:41:12 51°32.745 2°55.719 16.1644 4.059758 31.787368 0.287922
2010-07-01 07:42:13 51°32.745 2°55.731 16.1642 4.060075 31.787764 0.322746
2010-07-01 07:43:12 51°32.736 2°55.735 16.1589 4.059547 31.782567 0.218274
2010-07-01 07:44:13 51°32.728 2°55.735 16.176 4.058808 31.767246 -0.060319
2010-07-01 07:45:12 51°32.725 2°55.736 16.1812 4.059547 31.763639 -0.060319
2010-07-01 07:46:13 51°32.726 2°55.739 16.1814 4.060391 31.768047 -0.095143
2010-07-01 07:47:12 51°32.718 2°55.745 16.1891 4.060285 31.765353 0.078977
2010-07-01 07:48:13 51°32.704 2°55.777 16.1928 4.060707 31.763716 0.18345
2010-07-01 07:49:12 51°32.709 2°55.827 16.1935 4.06018 31.758524 -0.060319
2010-07-01 07:50:12 51°32.734 2°55.867 16.1868 4.059652 31.749789 -0.164791
2010-07-01 07:51:13 51°32.766 2°55.891 16.1985 4.059336 31.749391 -0.234439
2010-07-01 07:52:12 51°32.794 2°55.907 16.1891 4.060391 31.758001 -0.234439
2010-07-01 07:53:13 51°32.822 2°55.921 16.1916 4.059125 31.752276 -0.234439
2010-07-01 07:54:12 51°32.846 2°55.93 16.1883 4.060074 31.755241 -0.234439
2010-07-01 07:55:13 51°32.874 2°55.941 16.197 4.05923 31.752015 -0.129967
2010-07-01 07:56:12 51°32.9 2°55.96 16.1966 4.060074 31.755832 -0.129967
2010-07-01 07:57:13 51°32.921 2°55.991 16.2342 4.06018 31.759705 -0.095143
2010-07-01 07:58:12 51°32.935 2°56.019 16.2275 4.061867 31.753755 -0.025495
2010-07-01 07:59:13 51°32.944 2°56.044 16.2155 4.061656 31.757229 -0.025495
2010-07-01 08:00:13 51°32.956 2°56.073 16.215 4.061129 31.759125 -0.025495
2010-07-01 08:01:12 51°32.977 2°56.105 16.2217 4.060812 31.755775 0.009329
2010-07-01 08:02:13 51°33.012 2°56.119 16.2162 4.061234 31.748828 0.009329
2010-07-01 08:03:12 51°33.045 2°56.111 16.2254 4.06039 31.746192 -0.060319
2010-07-01 08:04:13 51°33.071 2°56.1 16.2276 4.060074 31.741662 -0.095143
2010-07-01 08:05:12 51°33.094 2°56.089 16.2281 4.061551 31.748045 -0.095143
2010-07-01 08:06:13 51°33.115 2°56.079 16.2367 4.062184 31.754743 -0.095143
2010-07-01 08:07:12 51°33.131 2°56.072 16.235 4.062184 31.754153 -0.060319
2010-07-01 08:08:13 51°33.147 2°56.066 16.2351 4.062711 31.75757 0.009329
2010-07-01 08:09:13 51°33.16 2°56.061 16.2319 4.062922 31.758229 0.044153
2010-07-01 08:10:12 51°33.171 2°56.057 16.2305 4.063872 31.762373 0.113802
2010-07-01 08:11:13 51°33.186 2°56.044 16.2381 4.063344 31.762497 0.18345
2010-07-01 08:12:12 51°33.2 2°56.012 16.2256 4.064294 31.773726 0.044153
2010-07-01 08:13:13 51°33.204 2°55.968 16.2039 4.064505 31.777928 0.009329
2010-07-01 08:14:12 51°33.201 2°55.934 16.2087 4.064189 31.789353 -0.025495
2010-07-01 08:15:13 51°33.197 2°55.905 16.2035 4.064822 31.797831 0.078977
2010-07-01 08:16:12 51°33.186 2°55.883 16.1939 4.064822 31.804339 0.148626
2010-07-01 08:17:13 51°33.178 2°55.874 16.2013 4.064716 31.805194 0.218274
2010-07-01 08:18:12 51°33.173 2°55.872 16.2021 4.065138 31.811835 0.253098
2010-07-01 08:19:13 51°33.164 2°55.873 16.1986 4.065349 31.808941 0.218274
2010-07-01 08:20:13 51°33.156 2°55.875 16.1884 4.065455 31.813413 0.18345
2010-07-01 08:21:12 51°33.15 2°55.878 16.1893 4.065033 31.812691 0.18345
2010-07-01 08:22:13 51°33.144 2°55.884 16.1979 4.064822 31.809666 0.113802
2010-07-01 08:23:12 51°33.137 2°55.891 16.2055 4.065138 31.808284 0.113802
2010-07-01 08:24:13 51°33.128 2°55.901 16.2061 4.065771 31.806114 0.078977
2010-07-01 08:25:12 51°33.117 2°55.909 16.227 4.064822 31.794282 0.044153
2010-07-01 08:26:13 51°33.108 2°55.917 16.2503 4.066298 31.792383 -0.025495
2010-07-01 08:27:12 51°33.103 2°55.922 16.2467 4.06556 31.776494 -0.060319
2010-07-01 08:28:13 51°33.101 2°55.926 16.252 4.064821 31.765335 -0.025495
2010-07-01 08:29:13 51°33.101 2°55.93 16.2557 4.065032 31.762453 0.009329
2010-07-01 08:30:12 51°33.102 2°55.933 16.2541 4.065243 31.757213 0.113802
2010-07-01 08:31:13 51°33.104 2°55.936 16.269 4.065243 31.757213 0.18345
2010-07-01 08:32:12 51°33.104 2°55.936 16.2679 4.065243 31.751906 0.218274
2010-07-01 08:33:13 51°33.108 2°55.939 16.2902 4.065243 31.751906 0.218274
2010-07-01 08:34:12 51°33.112 2°55.942 16.2769 4.064926 31.750918 0.253098
2010-07-01 08:35:12 51°33.116 2°55.944 16.2684 4.065665 31.754992 0.253098
2010-07-01 08:36:12 51°33.121 2°55.946 16.2647 4.06577 31.751784 0.253098
2010-07-01 08:37:12 51°33.126 2°55.947 16.2602 4.065454 31.756692 0.287922
2010-07-01 08:38:13 51°33.131 2°55.948 16.2594 4.064399 31.748682 0.322746
2010-07-01 08:39:12 51°33.137 2°55.948 16.2621 4.065348 31.756952 0.287922
2010-07-01 08:40:13 51°33.142 2°55.945 16.2594 4.065454 31.756102 0.287922
2010-07-01 08:41:12 51°33.15 2°55.935 16.2712 4.065032 31.754785 0.322746
2010-07-01 08:42:13 51°33.156 2°55.926 16.2762 4.065348 31.754004 0.218274
2010-07-01 08:43:12 51°33.161 2°55.918 16.2749 4.065454 31.757281 0.218274
2010-07-01 08:44:13 51°33.166 2°55.911 16.2736 4.06366 31.732821 0.218274
2010-07-01 08:45:12 51°33.171 2°55.905 16.2925 4.065876 31.752702 0.253098
2010-07-01 08:46:12 51°33.174 2°55.901 16.2744 4.066087 31.751003 0.253098
2010-07-01 08:47:12 51°33.177 2°55.897 16.276 4.066403 31.751991 0.253098
2010-07-01 08:48:12 51°33.179 2°55.895 16.2971 4.066614 31.755007 0.287922
2010-07-01 08:49:13 51°33.175 2°55.902 16.2997 4.067353 31.752008 0.253098
2010-07-01 08:50:12 51°33.16 2°55.918 16.3062 4.067669 31.751229 0.148626
2010-07-01 08:51:13 51°33.144 2°55.926 16.2969 4.068091 31.75019 -0.025495
2010-07-01 08:52:12 51°33.132 2°55.931 16.303 4.06788 31.753065 -0.129967
2010-07-01 08:53:13 51°33.125 2°55.934 16.2978 4.067775 31.746846 -0.095143
2010-07-01 08:54:12 51°33.119 2°55.936 16.3015 4.067564 31.746188 -0.060319
2010-07-01 08:55:12 51°33.114 2°55.936 16.3038 4.068091 31.748423 0.009329
2010-07-01 08:56:13 51°33.093 2°55.941 16.3289 4.067669 31.745928 0.044153
2010-07-01 08:57:12 51°33.068 2°55.93 16.3221 4.069146 31.743474 -0.060319
2010-07-01 08:58:13 51°33.051 2°55.908 16.3263 4.06904 31.740203 -0.199615
2010-07-01 08:59:12 51°33.041 2°55.879 16.3309 4.069146 31.739944 -0.164791
2010-07-01 09:00:13 51°33.039 2°55.85 16.3347 4.069673 31.739237 -0.129967
2010-07-01 09:01:12 51°33.039 2°55.809 16.3452 4.069673 31.732769 -0.025495
2010-07-01 09:02:13 51°33.023 2°55.749 16.3369 4.069779 31.736038 0.009329
2010-07-01 09:03:12 51°32.99 2°55.688 16.3313 4.06904 31.739026 0.009329
2010-07-01 09:04:13 51°32.938 2°55.62 16.3288 4.068724 31.732744 -0.129967
2010-07-01 09:05:13 51°32.885 2°55.562 16.3239 4.068513 31.732086 -0.234439
2010-07-01 09:06:12 51°32.833 2°55.547 16.3098 4.067774 31.735662 -0.269263
2010-07-01 09:07:13 51°32.774 2°55.544 16.3008 4.067141 31.73604 -0.304087
2010-07-01 09:08:12 51°32.728 2°55.513 16.3182 4.067458 31.735262 -0.338911
2010-07-01 09:09:13 51°32.705 2°55.479 16.3127 4.067774 31.732721 -0.373735
2010-07-01 09:10:12 51°32.69 2°55.452 16.3185 4.067563 31.731473 -0.304087
2010-07-01 09:11:13 51°32.681 2°55.427 16.3042 4.068196 31.734627 -0.164791
2010-07-01 09:12:12 51°32.676 2°55.408 16.2907 4.067247 31.731073 0.044153
2010-07-01 09:13:16 51°32.673 2°55.391 16.2727 4.066086 31.727449 0.218274
2010-07-01 09:14:15 51°32.672 2°55.378 16.2468 4.064399 31.738662 -0.060319
2010-07-01 09:15:14 51°32.67 2°55.367 16.2736 4.062183 31.729974 -0.269263
2010-07-01 09:16:13 51°32.668 2°55.355 16.2516 4.064399 31.73395 -0.338911
2010-07-01 09:17:12 51°32.666 2°55.344 16.2771 4.063238 31.732681 -0.338911
2010-07-01 09:18:13 51°32.663 2°55.333 16.3023 4.065137 31.730368 -0.338911
2010-07-01 09:19:12 51°32.66 2°55.324 16.303 4.066719 31.733545 -0.373735
2010-07-01 09:20:13 51°32.657 2°55.313 16.3329 4.067247 31.728132 -0.373735
2010-07-01 09:21:12 51°32.654 2°55.304 16.3236 4.069357 31.728841 -0.373735
2010-07-01 09:22:12 51°32.651 2°55.296 16.3179 4.068513 31.730321 -0.373735
2010-07-01 09:23:12 51°32.646 2°55.286 16.3307 4.067985 31.72985 -0.373735
2010-07-01 09:24:12 51°32.643 2°55.279 16.3268 4.069462 31.733286 -0.373735
2010-07-01 09:25:13 51°32.637 2°55.269 16.2996 4.069779 31.734274 -0.408559
2010-07-01 09:26:12 51°32.632 2°55.26 16.2515 4.067458 31.75057 -0.338911
2010-07-01 09:27:13 51°32.625 2°55.25 16.2596 4.064715 31.748491 -0.338911
2010-07-01 09:28:12 51°32.619 2°55.24 16.2812 4.064715 31.742597 -0.338911
2010-07-01 09:29:13 51°32.613 2°55.23 16.3069 4.065559 31.735219 -0.373735
2010-07-01 09:30:12 51°32.605 2°55.22 16.325 4.068091 31.734885 -0.338911
2010-07-01 09:31:12 51°32.597 2°55.208 16.3391 4.069673 31.732181 -0.373735
2010-07-01 09:32:12 51°32.589 2°55.199 16.3474 4.070939 31.737309 -0.373735
2010-07-01 09:33:12 51°32.596 2°55.176 16.3076 4.072205 31.743023 -0.408559
2010-07-01 09:34:13 51°32.645 2°55.161 16.3218 4.068196 31.744042 -0.269263
2010-07-01 09:35:12 51°32.679 2°55.185 16.3283 4.070306 31.733569 -0.408559
2010-07-01 09:36:13 51°32.701 2°55.206 16.3438 4.070306 31.738273 -0.373735
2010-07-01 09:37:12 51°32.715 2°55.215 16.3404 4.068407 31.710012 -0.408559
2010-07-01 09:38:13 51°32.726 2°55.215 16.2819 4.072416 31.737804 -0.408559
2010-07-01 09:39:12 51°32.735 2°55.213 16.2933 4.069357 31.762386 -0.338911
2010-07-01 09:40:12 51°32.754 2°55.214 16.3476 4.069568 31.748911 -0.408559
2010-07-01 09:41:12 51°32.769 2°55.213 16.3424 4.07326 31.75337 -0.408559
2010-07-01 09:42:12 51°32.784 2°55.213 16.3235 4.073577 31.766712 -0.338911
2010-07-01 09:43:13 51°32.795 2°55.226 16.3109 4.071783 31.764652 -0.373735
2010-07-01 09:44:12 51°32.81 2°55.238 16.3364 4.0721 31.770939 -0.269263
2010-07-01 09:45:13 51°32.822 2°55.242 16.3636 4.074526 31.767317 -0.304087
2010-07-01 09:46:12 51°32.833 2°55.235 16.3624 4.076636 31.770364 -0.338911
2010-07-01 09:47:13 51°32.843 2°55.214 16.3529 4.077691 31.783652 -0.338911
2010-07-01 09:48:12 51°32.846 2°55.188 16.3411 4.078535 31.801587 -0.338911
2010-07-01 09:49:13 51°32.85 2°55.151 16.3127 4.078957 31.811738 -0.304087
2010-07-01 09:50:12 51°32.828 2°55.05 16.2303 4.076637 31.832841 -0.234439
2010-07-01 09:51:12 51°32.734 2°55.043 16.3028 4.073578 31.842836 -0.304087
2010-07-01 09:52:12 51°32.668 2°55.162 16.2884 4.07727 31.843671 -0.373735
2010-07-01 09:53:12 51°32.62 2°55.304 16.3538 4.072944 31.794788 -0.408559
2010-07-01 09:54:13 51°32.604 2°55.342 16.3884 4.076214 31.77199 -0.408559
2010-07-01 09:55:12 51°32.591 2°55.335 16.3251 4.075792 31.765969 -0.338911
2010-07-01 09:56:12 51°32.58 2°55.318 16.28 4.070939 31.763198 -0.129967
2010-07-01 09:57:12 51°32.571 2°55.307 16.2813 4.068724 31.768663 0.044153
2010-07-01 09:58:13 51°32.565 2°55.312 16.2833 4.06788 31.761315 0.078977
2010-07-01 09:59:12 51°32.561 2°55.328 16.3439 4.069568 31.760688 0.113802
2010-07-01 10:00:12 51°32.56 2°55.344 16.3694 4.073682 31.752922 -0.060319
2010-07-01 10:01:13 51°32.562 2°55.353 16.381 4.075792 31.75715 -0.095143
2010-07-01 10:02:12 51°32.565 2°55.354 16.3569 4.076108 31.754023 -0.199615
2010-07-01 10:03:13 51°32.565 2°55.351 16.316 4.07421 31.758095 -0.025495
2010-07-01 10:04:12 51°32.564 2°55.346 16.3214 4.072522 31.778735 0.009329
2010-07-01 10:05:13 51°32.562 2°55.338 16.3098 4.072206 31.775981 -0.060319
2010-07-01 10:06:12 51°32.56 2°55.331 16.3265 4.072416 31.773104 -0.060319
2010-07-01 10:07:12 51°32.559 2°55.325 16.3421 4.073155 31.774228 -0.129967
2010-07-01 10:08:12 51°32.562 2°55.321 16.3579 4.074737 31.771506 -0.164791
2010-07-01 10:09:12 51°32.565 2°55.317 16.3731 4.076847 31.773374 -0.234439
2010-07-01 10:10:12 51°32.568 2°55.316 16.3742 4.077902 31.779014 -0.269263
2010-07-01 10:11:12 51°32.569 2°55.316 16.3969 4.079062 31.781452 -0.269263
2010-07-01 10:12:13 51°32.569 2°55.315 16.3969 4.081805 31.79352 -0.338911
2010-07-01 10:13:12 51°32.567 2°55.315 16.3937 4.082544 31.802288 -0.338911
2010-07-01 10:14:13 51°32.566 2°55.314 16.3918 4.08286 31.806215 -0.304087
2010-07-01 10:15:12 51°32.565 2°55.315 16.3726 4.08381 31.813876 -0.338911
2010-07-01 10:16:12 51°32.563 2°55.317 16.375 4.082228 31.820732 -0.304087
2010-07-01 10:17:12 51°32.563 2°55.318 16.3721 4.082439 31.819621 -0.304087
2010-07-01 10:18:12 51°32.562 2°55.318 16.3653 4.083072 31.823945 -0.304087
2010-07-01 10:19:13 51°32.563 2°55.318 16.3802 4.082544 31.824662 -0.338911
2010-07-01 10:20:12 51°32.563 2°55.318 16.3678 4.083494 31.827613 -0.373735
2010-07-01 10:21:13 51°32.563 2°55.318 16.3842 4.083599 31.829709 -0.338911
2010-07-01 10:22:12 51°32.564 2°55.318 16.4105 4.085393 31.831747 -0.338911
2010-07-01 10:23:13 51°32.564 2°55.317 16.4097 4.087502 31.831826 -0.338911
2010-07-01 10:24:12 51°32.565 2°55.316 16.4193 4.087608 31.830389 -0.338911
2010-07-01 10:25:12 51°32.564 2°55.317 16.4294 4.088768 31.837525 -0.373735
2010-07-01 10:26:12 51°32.563 2°55.317 16.4193 4.089823 31.837858 -0.373735
2010-07-01 10:27:12 51°32.563 2°55.317 16.4367 4.089085 31.840273 -0.408559
2010-07-01 10:28:12 51°32.562 2°55.319 16.4479 4.08919 31.835304 -0.373735
2010-07-01 10:29:12 51°32.562 2°55.32 16.4363 4.091617 31.84225 -0.373735
2010-07-01 10:30:13 51°32.562 2°55.32 16.4179 4.090456 31.842766 -0.373735
2010-07-01 10:31:12 51°32.562 2°55.319 16.4227 4.089507 31.842172 -0.373735
2010-07-01 10:32:13 51°32.563 2°55.317 16.4181 4.090351 31.843027 -0.373735
2010-07-01 10:33:12 51°32.564 2°55.316 16.4203 4.090034 31.844987 -0.373735
2010-07-01 10:34:13 51°32.565 2°55.317 16.4209 4.089823 31.843743 -0.373735
2010-07-01 10:35:12 51°32.564 2°55.317 16.405 4.08898 31.844655 -0.373735
2010-07-01 10:36:12 51°32.563 2°55.317 16.415 4.08803 31.848186 -0.373735
2010-07-01 10:37:12 51°32.562 2°55.319 16.4329 4.089507 31.849826 -0.338911
2010-07-01 10:38:12 51°32.562 2°55.319 16.3959 4.090878 31.847019 -0.373735
2010-07-01 10:39:13 51°32.562 2°55.318 16.4149 4.089824 31.85611 -0.373735
2010-07-01 10:40:12 51°32.563 2°55.317 16.4241 4.089929 31.851725 -0.373735
2010-07-01 10:41:13 51°32.565 2°55.316 16.433 4.090878 31.84643 -0.408559
2010-07-01 10:42:12 51°32.565 2°55.316 16.4123 4.092039 31.860039 -0.408559
2010-07-01 10:43:13 51°32.564 2°55.317 16.3961 4.090351 31.86246 -0.338911
2010-07-01 10:44:12 51°32.563 2°55.318 16.3983 4.090351 31.868354 -0.338911
2010-07-01 10:45:12 51°32.561 2°55.32 16.3907 4.090773 31.869074 -0.338911
2010-07-01 10:46:12 51°32.561 2°55.32 16.3944 4.090351 31.870123 -0.338911
2010-07-01 10:47:12 51°32.562 2°55.32 16.4233 4.091195 31.870383 -0.338911
2010-07-01 10:48:12 51°32.562 2°55.32 16.4293 4.0932 31.874831 -0.373735
2010-07-01 10:49:12 51°32.562 2°55.318 16.4197 4.093938 31.879477 -0.373735
2010-07-01 10:50:12 51°32.563 2°55.316 16.4241 4.094255 31.879869 -0.408559
2010-07-01 10:51:12 51°32.564 2°55.316 16.4079 4.094044 31.880983 -0.373735
2010-07-01 10:52:12 51°32.565 2°55.316 16.3837 4.092883 31.88564 -0.373735
2010-07-01 10:53:12 51°32.565 2°55.315 16.3891 4.091828 31.888859 -0.373735
2010-07-01 10:54:12 51°32.563 2°55.315 16.3608 4.092039 31.889513 -0.408559
2010-07-01 10:55:12 51°32.563 2°55.316 16.3576 4.090563 31.89438 -0.373735
2010-07-01 10:56:12 51°32.563 2°55.317 16.3081 4.089614 31.907983 -0.373735
2010-07-01 10:57:12 51°32.562 2°55.319 16.3109 4.087504 31.907361 -0.373735
2010-07-01 10:58:12 51°32.562 2°55.319 16.3409 4.088348 31.910567 -0.373735
2010-07-01 10:59:12 51°32.561 2°55.319 16.2896 4.089508 31.910022 -0.304087
2010-07-01 11:00:12 51°32.562 2°55.319 16.3298 4.087082 31.917299 -0.304087
2010-07-01 11:01:12 51°32.563 2°55.317 16.3288 4.090141 31.923222 -0.304087
2010-07-01 11:02:12 51°32.563 2°55.316 16.3013 4.090247 31.915858 -0.304087
2010-07-01 11:03:12 51°32.563 2°55.317 16.2747 4.089086 31.928244 -0.373735
2010-07-01 11:04:12 51°32.563 2°55.317 16.2919 4.088032 31.938013 -0.304087
2010-07-01 11:05:12 51°32.563 2°55.317 16.3208 4.088031 31.924977 -0.304087
2010-07-01 11:06:12 51°32.563 2°55.317 16.3091 4.090141 31.926773 -0.338911
2010-07-01 11:07:12 51°32.562 2°55.319 16.3138 4.089719 31.93198 -0.338911
2010-07-01 11:08:12 51°32.562 2°55.319 16.2956 4.089825 31.933491 -0.338911
2010-07-01 11:09:12 51°32.562 2°55.319 16.3004 4.089614 31.939354 -0.338911
2010-07-01 11:10:12 51°32.562 2°55.318 16.3041 4.08993 31.936779 -0.373735
2010-07-01 11:11:12 51°32.564 2°55.317 16.2998 4.090352 31.933939 -0.373735
2010-07-01 11:12:12 51°32.563 2°55.318 16.2851 4.090036 31.94066 -0.408559
2010-07-01 11:13:12 51°32.563 2°55.316 16.3146 4.090036 31.940068 -0.373735
2010-07-01 11:14:12 51°32.564 2°55.315 16.3526 4.091829 31.933774 -0.408559
2010-07-01 11:15:12 51°32.564 2°55.316 16.3149 4.094256 31.946016 -0.338911
2010-07-01 11:16:12 51°32.564 2°55.316 16.3043 4.092357 31.943102 -0.338911
2010-07-01 11:17:12 51°32.564 2°55.316 16.2735 4.091197 31.951362 -0.304087
2010-07-01 11:18:12 51°32.564 2°55.314 16.2374 4.089931 31.958714 -0.304087
2010-07-01 11:19:12 51°32.564 2°55.315 16.2779 4.087294 31.960647 -0.269263
2010-07-01 11:20:12 51°32.563 2°55.317 16.287 4.088981 31.945101 -0.304087
2010-07-01 11:21:12 51°32.562 2°55.318 16.3091 4.090564 31.954147 -0.304087
2010-07-01 11:22:12 51°32.562 2°55.318 16.3047 4.091935 31.951275 -0.304087
2010-07-01 11:23:12 51°32.562 2°55.318 16.3418 4.09299 31.95513 -0.338911
2010-07-01 11:24:12 51°32.562 2°55.32 16.2873 4.094678 31.953833 -0.373735
2010-07-01 11:25:12 51°32.562 2°55.32 16.2584 4.090564 31.970166 -0.269263
2010-07-01 11:26:12 51°32.562 2°55.317 16.3212 4.088876 31.953078 -0.269263
2010-07-01 11:27:12 51°32.563 2°55.318 16.2708 4.092357 31.954951 -0.269263
2010-07-01 11:28:12 51°32.564 2°55.317 16.2318 4.089193 31.965332 -0.269263
2010-07-01 11:29:12 51°32.564 2°55.316 16.2531 4.086872 31.961718 -0.234439
2010-07-01 11:30:12 51°32.565 2°55.314 16.2369 4.087927 31.960824 -0.234439
2010-07-01 11:31:12 51°32.565 2°55.315 16.248 4.087083 31.956432 -0.269263
2010-07-01 11:32:12 51°32.564 2°55.317 16.2558 4.087294 31.957085 -0.269263
2010-07-01 11:33:12 51°32.563 2°55.317 16.2463 4.086766 31.95011 -0.234439
2010-07-01 11:34:12 51°32.563 2°55.317 16.2301 4.086872 31.957561 -0.234439
2010-07-01 11:35:12 51°32.564 2°55.316 16.24 4.084762 31.954002 -0.164791
2010-07-01 11:36:12 51°32.564 2°55.315 16.243 4.085606 31.951862 -0.199615
2010-07-01 11:37:12 51°32.564 2°55.316 16.2588 4.0855 31.954505 -0.164791
2010-07-01 11:38:12 51°32.569 2°55.323 16.2357 4.087399 31.951475 -0.164791
2010-07-01 11:39:12 51°32.579 2°55.336 16.17 4.085078 31.958546 -0.164791
2010-07-01 11:40:12 51°32.593 2°55.345 16.1307 4.080542 31.962351 -0.199615
2010-07-01 11:41:12 51°32.604 2°55.343 16.1188 4.077061 31.965871 -0.199615
2010-07-01 11:42:12 51°32.633 2°55.323 16.1201 4.075795 31.955992 -0.129967
2010-07-01 11:43:12 51°32.656 2°55.193 16.0771 4.075268 31.95853 -0.164791
2010-07-01 11:44:12 51°32.582 2°55.02 16.0131 4.071998 31.96809 -0.164791
2010-07-01 11:45:12 51°32.41 2°54.769 16.0073 4.068095 31.974528 -0.234439
2010-07-01 11:46:12 51°32.229 2°54.499 16.0199 4.068833 31.980404 -0.269263
2010-07-01 11:47:12 51°32.047 2°54.226 16.031 4.069888 31.981277 -0.304087
2010-07-01 11:48:12 51°31.868 2°53.952 16.0358 4.071471 31.987371 -0.269263
2010-07-01 11:49:12 51°31.689 2°53.676 16.0669 4.072948 31.993734 -0.269263
2010-07-01 11:50:12 51°31.508 2°53.403 16.0896 4.075057 31.991295 -0.338911
2010-07-01 11:51:12 51°31.328 2°53.127 16.0844 4.077589 31.990168 -0.373735
2010-07-01 11:52:12 51°31.148 2°52.853 16.0959 4.078011 31.990279 -0.408559
2010-07-01 11:53:13 51°30.965 2°52.576 16.0851 4.07664 31.985441 -0.373735
2010-07-01 11:54:12 51°30.789 2°52.308 16.0905 4.075479 31.982448 -0.338911
2010-07-01 11:55:12 51°30.609 2°52.036 16.115 4.075901 31.96824 -0.338911
2010-07-01 11:56:12 51°30.431 2°51.763 16.1389 4.075162 31.95582 -0.338911
2010-07-01 11:57:12 51°30.252 2°51.492 16.1566 4.076111 31.947442 -0.304087
2010-07-01 11:58:12 51°30.077 2°51.219 16.1846 4.073896 31.914396 -0.373735
2010-07-01 11:59:12 51°29.901 2°50.946 16.2028 4.073473 31.882797 -0.338911
2010-07-01 12:00:12 51°29.725 2°50.672 16.2308 4.073367 31.865866 -0.304087
2010-07-01 12:01:12 51°29.55 2°50.397 16.2593 4.073472 31.842508 -0.338911
2010-07-01 12:02:13 51°29.372 2°50.116 16.2541 4.074527 31.841647 -0.338911
2010-07-01 12:03:12 51°29.199 2°49.842 16.2559 4.074105 31.83797 -0.338911
2010-07-01 12:04:12 51°29.028 2°49.557 16.5413 4.075266 31.838622 -0.373735
2010-07-01 12:05:12 51°28.856 2°49.269 16.6508 4.076844 31.620657 -0.338911
2010-07-01 12:06:12 51°28.683 2°48.98 16.6317 4.073889 31.534175 -0.373735
2010-07-01 12:07:12 51°28.512 2°48.689 16.5909 4.074839 31.559179 -0.304087
2010-07-01 12:08:12 51°28.341 2°48.394 16.6169 4.07294 31.56134 -0.304087
2010-07-01 12:09:12 51°28.17 2°48.099 16.6019 4.06967 31.530185 -0.304087
2010-07-01 12:10:12 51°27.998 2°47.804 16.627 4.069247 31.502215 -0.234439
2010-07-01 12:11:12 51°27.826 2°47.507 16.6783 4.07083 31.521085 -0.304087
2010-07-01 12:12:12 51°27.654 2°47.211 16.7374 4.070935 31.475738 -0.269263
2010-07-01 12:13:13 51°27.48 2°46.908 16.7602 4.073888 31.452177 -0.164791
2010-07-01 12:14:12 51°27.312 2°46.617 16.9302 4.076525 31.436326 -0.269263
2010-07-01 12:15:12 51°27.137 2°46.328 16.9247 4.08412 31.404077 -0.269263
2010-07-01 12:16:12 51°26.953 2°46.054 16.8924 4.080638 31.378802 -0.304087
2010-07-01 12:17:12 51°26.77 2°45.779 16.8022 4.075996 31.373874 -0.304087
2010-07-01 12:18:12 51°26.58 2°45.518 16.8285 4.06935 31.363186 -0.269263
2010-07-01 12:19:12 51°26.383 2°45.272 16.8381 4.073465 31.368167 -0.304087
2010-07-01 12:20:12 51°26.186 2°45.024 16.7318 4.074837 31.408608 -0.269263
2010-07-01 12:21:12 51°25.989 2°44.776 16.6644 4.071673 31.449805 -0.304087
2010-07-01 12:22:13 51°25.785 2°44.537 16.5949 4.074311 31.539555 -0.304087
2010-07-01 12:23:12 51°25.577 2°44.332 16.4109 4.08233 31.642483 -0.373735
2010-07-01 12:24:12 51°25.365 2°44.122 16.2587 4.088241 31.864167 -0.373735
2010-07-01 12:25:12 51°25.153 2°43.912 16.2258 4.084445 31.919792 -0.408559
2010-07-01 12:26:12 51°24.923 2°43.779 16.273 4.083496 31.937019 -0.443383
2010-07-01 12:27:12 51°24.71 2°43.709 16.2316 4.089087 31.962038 -0.408559
2010-07-01 12:28:12 51°24.601 2°43.639 16.2413 4.08972 31.978841 -0.408559
2010-07-01 12:29:12 51°24.529 2°43.663 16.3123 4.088981 31.963493 -0.408559
2010-07-01 12:30:12 51°24.544 2°43.727 16.3498 4.090247 31.943683 -0.373735
2010-07-01 12:31:12 51°24.593 2°43.706 16.3901 4.090668 31.898251 -0.408559
2010-07-01 12:32:12 51°24.632 2°43.674 16.3964 4.094149 31.885436 -0.408559
2010-07-01 12:33:12 51°24.656 2°43.682 16.347 4.094361 31.916185 -0.373735
2010-07-01 12:34:12 51°24.668 2°43.704 16.3611 4.093939 31.924924 -0.373735
2010-07-01 12:35:12 51°24.682 2°43.723 16.4245 4.095522 31.941055 -0.338911
2010-07-01 12:36:12 51°24.695 2°43.735 16.3614 4.099741 31.928111 -0.338911
2010-07-01 12:37:12 51°24.693 2°43.731 16.3561 4.096471 31.958193 -0.234439
2010-07-01 12:38:12 51°24.682 2°43.714 16.3797 4.095944 31.941769 -0.234439
2010-07-01 12:39:12 51°24.671 2°43.696 16.3478 4.096787 31.939649 -0.129967
2010-07-01 12:40:13 51°24.66 2°43.679 16.3125 4.095311 31.962898 -0.025495
2010-07-01 12:41:12 51°24.664 2°43.687 16.41 4.093834 31.95774 0.044153
2010-07-01 12:42:13 51°24.675 2°43.717 16.3896 4.097842 31.934047 0.009329
2010-07-01 12:43:12 51°24.69 2°43.738 16.4317 4.098792 31.945255 -0.129967
2010-07-01 12:44:12 51°24.684 2°43.731 16.3626 4.100269 31.940369 -0.234439
2010-07-01 12:45:16 51°24.664 2°43.698 16.2689 4.095627 31.960914 -0.095143
2010-07-01 12:46:15 51°24.647 2°43.669 16.217 4.09183 31.995462 0.044153
2010-07-01 12:47:14 51°24.644 2°43.67 16.2083 4.086661 31.977112 0.078977
2010-07-01 12:48:13 51°24.667 2°43.699 16.2084 4.088455 31.992171 0.044153
2010-07-01 12:49:12 51°24.686 2°43.728 16.2957 4.089826 31.973821 -0.129967
2010-07-01 12:50:12 51°24.683 2°43.723 16.374 4.092357 31.950803 -0.234439
2010-07-01 12:51:16 51°24.669 2°43.698 16.3627 4.095732 31.932838 -0.199615
2010-07-01 12:52:15 51°24.659 2°43.681 16.3568 4.095522 31.941647 -0.129967
2010-07-01 12:53:13 51°24.65 2°43.666 16.3292 4.095522 31.94283 -0.025495
2010-07-01 12:54:12 51°24.652 2°43.67 16.2801 4.094256 31.958452 -0.060319
2010-07-01 12:55:12 51°24.676 2°43.712 16.3032 4.091725 31.992758 0.078977
2010-07-01 12:56:12 51°24.696 2°43.742 16.4382 4.092779 31.951515 -0.164791
2010-07-01 12:57:12 51°24.696 2°43.739 16.4666 4.099213 31.906426 -0.269263
2010-07-01 12:58:16 51°24.687 2°43.719 16.4023 4.099635 31.89536 -0.199615
2010-07-01 12:59:16 51°24.679 2°43.703 16.3937 4.096893 31.919888 -0.095143
2010-07-01 13:00:16 51°24.671 2°43.684 16.3852 4.096576 31.922451 0.009329
2010-07-01 13:01:14 51°24.668 2°43.672 16.3588 4.09626 31.929151 0.044153
2010-07-01 13:02:14 51°24.679 2°43.705 16.4597 4.0951 31.964023 0.078977
2010-07-01 13:03:12 51°24.692 2°43.73 16.8944 4.094042 31.799881 0.078977
2010-07-01 13:04:12 51°24.702 2°43.749 17.11 4.097835 31.488433 -0.025495
2010-07-01 13:05:12 51°24.706 2°43.749 17.1635 4.106168 31.44435 0.044153
2010-07-01 13:06:12 51°24.706 2°43.75 17.2486 4.108383 31.426844 0.18345
2010-07-01 13:07:12 51°24.706 2°43.754 17.2101 4.108487 31.349509 0.218274
2010-07-01 13:08:12 51°24.706 2°43.743 17.0761 4.110704 31.426182 0.35757
2010-07-01 13:09:12 51°24.704 2°43.731 16.9442 4.107962 31.501326 0.427218
2010-07-01 13:10:12 51°24.702 2°43.718 17.4551 4.108386 31.63008 0.287922
2010-07-01 13:11:12 51°24.701 2°43.703 17.5005 4.117768 31.198003 0.078977
2010-07-01 13:12:12 51°24.698 2°43.688 17.721 4.127475 31.277228 0.392394
2010-07-01 13:13:12 51°24.701 2°43.683 17.0672 4.117555 31.080697 0.566514
2010-07-01 13:14:12 51°24.705 2°43.712 17.0852 4.117986 31.645632 0.322746
2010-07-01 13:15:12 51°24.689 2°43.755 17.4997 4.09646 31.283303 0.148626
2010-07-01 13:16:12 51°24.648 2°43.784 17.5221 4.097933 31.081618 -0.095143
2010-07-01 13:17:12 51°24.534 2°43.866 17.7291 4.106163 31.159587 -0.095143
2010-07-01 13:18:12 51°24.338 2°44.004 17.7889 4.103311 30.948738 -0.129967
2010-07-01 13:19:12 51°24.147 2°44.18 17.854 4.112383 30.935924 0.009329
2010-07-01 13:20:12 51°23.962 2°44.373 17.733 4.105843 30.949663 0.113802
2010-07-01 13:21:12 51°23.775 2°44.561 17.7431 4.093499 30.880534 0.218274
2010-07-01 13:22:12 51°23.588 2°44.746 17.77 4.094132 30.85182 0.287922
2010-07-01 13:23:12 51°23.401 2°44.937 17.4635 4.09677 30.92455 0.287922
2010-07-01 13:24:12 51°23.211 2°45.121 17.5576 4.085589 30.994473 0.218274
2010-07-01 13:25:12 51°23.022 2°45.307 17.5221 4.088859 30.948938 0.148626
2010-07-01 13:26:12 51°22.835 2°45.498 17.4674 4.088543 31.00501 0.218274
2010-07-01 13:27:12 51°22.645 2°45.686 17.386 4.08348 30.997185 0.18345
2010-07-01 13:28:12 51°22.456 2°45.878 17.3291 4.078205 31.00316 0.18345
2010-07-01 13:29:12 51°22.264 2°46.071 17.3267 4.077256 31.022432 0.253098
2010-07-01 13:30:12 51°22.072 2°46.269 17.3367 4.077256 31.037508 0.287922
2010-07-01 13:31:12 51°21.879 2°46.474 17.3376 4.078522 31.027031 0.35757
2010-07-01 13:32:12 51°21.686 2°46.68 17.2813 4.079155 31.050269 0.462042
2010-07-01 13:33:12 51°21.506 2°46.914 17.2837 4.077784 31.060994 0.496866
2010-07-01 13:34:12 51°21.329 2°47.156 17.3444 4.078734 31.091459 0.462042
2010-07-01 13:35:12 51°21.148 2°47.369 18.2266 4.081475 30.981891 0.601338
2010-07-01 13:36:12 51°20.966 2°47.576 18.4452 4.091276 30.459164 1.506764
2010-07-01 13:37:12 51°20.784 2°47.785 18.3733 4.094229 30.382063 1.611236
2010-07-01 13:38:12 51°20.601 2°47.992 18.309 4.092435 30.392684 1.47194
2010-07-01 13:39:12 51°20.421 2°48.2 18.1958 4.090115 30.427153 1.332643
2010-07-01 13:40:12 51°20.24 2°48.408 18.1285 4.085685 30.465081 1.228171
2010-07-01 13:41:12 51°20.057 2°48.617 18.0914 4.08442 30.49471 1.228171
2010-07-01 13:42:12 51°19.875 2°48.828 18.0937 4.085159 30.525542 1.228171
2010-07-01 13:43:12 51°19.691 2°49.042 18.0977 4.086531 30.543414 1.158523
2010-07-01 13:44:12 51°19.508 2°49.258 18.0943 4.088641 30.551848 1.158523
2010-07-01 13:45:12 51°19.324 2°49.475 18.2595 4.089485 30.564255 1.193347
2010-07-01 13:46:12 51°19.141 2°49.699 18.4019 4.104464 30.541325 1.262995
2010-07-01 13:47:12 51°18.957 2°49.923 18.4528 4.119339 30.589811 1.402292
2010-07-01 13:48:12 51°18.759 2°50.118 18.6466 4.12588 30.584741 1.437116
2010-07-01 13:49:12 51°18.558 2°50.302 18.7048 4.138644 30.563152 1.402292
2010-07-01 13:50:12 51°18.359 2°50.487 18.7287 4.139698 30.520039 1.506764
2010-07-01 13:51:12 51°18.159 2°50.677 18.7171 4.141914 30.530861 1.47194
2010-07-01 13:52:12 51°17.96 2°50.865 18.7866 4.15141 30.625315 1.402292
2010-07-01 13:53:12 51°17.762 2°51.055 18.8762 4.170191 30.716109 1.297819
2010-07-01 13:54:12 51°17.565 2°51.246 18.9232 4.189182 30.796201 1.054051
2010-07-01 13:55:12 51°17.368 2°51.44 18.8887 4.198257 30.867427 0.984403
2010-07-01 13:56:12 51°17.172 2°51.637 18.8632 4.195936 30.882922 0.949579
2010-07-01 13:57:12 51°16.99 2°51.863 18.7147 4.196464 30.902689 0.914755
2010-07-01 13:58:12 51°16.815 2°52.105 18.7784 4.191295 30.924191 0.914755
2010-07-01 13:59:12 51°16.638 2°52.344 18.7541 4.195831 30.932143 0.879931
2010-07-01 14:00:12 51°16.463 2°52.588 18.6255 4.193721 30.940422 0.879931
2010-07-01 14:01:12 51°16.288 2°52.834 18.5955 4.18391 30.957575 1.019227
2010-07-01 14:02:12 51°16.112 2°53.075 18.7864 4.178107 30.914512 1.054051
2010-07-01 14:03:12 51°15.933 2°53.309 18.9134 4.184435 30.82197 1.193347
2010-07-01 14:04:12 51°15.75 2°53.53 19.2729 4.183801 30.742567 1.402292
2010-07-01 14:05:12 51°15.569 2°53.754 19.3976 4.1992 30.544618 1.715708
2010-07-01 14:06:12 51°15.389 2°53.976 19.3043 4.189914 30.449154 2.029124
2010-07-01 14:07:12 51°15.21 2°54.197 19.728 4.18411 30.36197 2.029124
2010-07-01 14:08:12 51°15.03 2°54.412 19.513 4.185056 30.193879 2.725606
2010-07-01 14:09:12 51°14.85 2°54.625 19.7395 2.183548 14.764858 -0.896096
2010-07-01 14:10:12 51°14.668 2°54.828 19.8082 2.175241 14.704258 -0.896096
2010-07-01 14:11:12 51°14.496 2°55.055 19.8803 2.159048 14.585982 -0.93092
2010-07-01 14:12:13 51°14.341 2°55.214 19.9408 2.166934 14.645639 -0.896096
2010-07-01 14:13:16 51°14.228 2°55.316 19.9946 2.159679 14.591125 -0.93092
2010-07-01 14:14:16 51°14.117 2°55.407 20.0337 0.971578 5.931422 -0.896096
2010-07-01 14:15:13 51°13.993 2°55.5 20.0454 0.122713 0.661431 -0.896096
2010-07-01 14:16:12 51°13.889 2°55.578 20.0849 0.069636 0.367052 -0.896096
2010-07-01 14:17:12 51°13.799 2°55.653 20.1724 0.063601 0.333966 -0.896096
2010-07-01 14:18:12 51°13.739 2°55.752 20.2649 0.062249 0.327726 -0.93092
2010-07-01 14:19:12 51°13.695 2°55.842 20.2656 0.062041 0.328162 -0.861272
2010-07-01 14:20:12 51°13.676 2°55.912 20.3789 0.062665 0.331666 -0.861272
2010-07-01 14:21:12 51°13.663 2°55.956 20.4053 0.063393 0.335623 -0.861272